Valladolid, YUC, Mexico
Current Conditions -  °F | °C
As of 11:49 PM on Friday 24 Oct 2014 (Local Time) from MMCZ Reporting Station
Overcast Overcast  
Wind Chill: 75°   Ceiling: 1200
Heat Index: 75°   Visibility: 7mi
Dew Point: 73°   Wind: 13mph
Humidity: 94%   Direction: 360°N
Pressure: 29.91"   Gusts: NA
Location:  20.69°N, 88.21°W
Report Text: MMCZ 250449Z 36011KT 7SM BKN012CB OVC070 24/23 A2991 RMK 8/36/ SC BINOVC RTS
Loading
Personal Weather Stations






























Interactive Weather Map
Tropical Storm Tracking
New forecast layout! Learn more

10-Day Weather Forecast

Advertisements
Track Severe Weather on mobile